Time;durP1;ratioP1;P1;durP2;ratioP2;P2;SDS_P1;SDS_P2;PMS_P1;PMS_P2;Temp;Humidity;BMP_temperature;BMP_pressure;BME280_temperature;BME280_humidity;BME280_pressure;Samples;Min_cycle;Max_cycle;Signal;HPM_P1;HPM_P2
2023/07/31 00:00:27;;;;;;;2.13;1.50;;;;;;;27.41;57.96;100664.66;5073083;28;20052;-57
2023/07/31 00:02:54;;;;;;;4.18;2.03;;;;;;;27.42;57.91;100666.34;5063227;28;20049;-57
2023/07/31 00:05:23;;;;;;;3.47;1.70;;;;;;;27.43;57.83;100653.59;5065856;28;20048;-57
2023/07/31 00:07:51;;;;;;;4.10;1.83;;;;;;;27.43;58.00;100657.19;5066657;28;20048;-56
2023/07/31 00:10:18;;;;;;;3.75;1.60;;;;;;;27.43;57.59;100656.31;5072359;28;20056;-57
2023/07/31 00:12:46;;;;;;;2.80;1.70;;;;;;;27.43;57.81;100654.47;5063483;28;20041;-57
2023/07/31 00:15:14;;;;;;;3.17;2.00;;;;;;;27.44;57.85;100650.69;5065807;28;20045;-57
2023/07/31 00:17:41;;;;;;;3.85;1.88;;;;;;;27.45;57.87;100657.81;5067019;28;20048;-56
2023/07/31 00:20:09;;;;;;;2.90;1.77;;;;;;;27.45;57.47;100665.97;5059395;28;20366;-57
2023/07/31 00:22:37;;;;;;;3.22;1.85;;;;;;;27.45;57.40;100655.09;5059528;28;20378;-57
2023/07/31 00:25:06;;;;;;;2.92;1.80;;;;;;;27.46;57.60;100653.22;5069854;28;20106;-59
2023/07/31 00:27:33;;;;;;;3.35;2.25;;;;;;;27.46;57.60;100656.78;5072847;28;20480;-53
2023/07/31 00:30:01;;;;;;;3.95;1.83;;;;;;;27.49;57.58;100655.56;5063511;28;20056;-53
2023/07/31 00:32:28;;;;;;;2.65;1.60;;;;;;;27.49;57.58;100653.69;5067903;28;20497;-53
2023/07/31 00:34:55;;;;;;;3.25;1.85;;;;;;;27.48;57.65;100652.00;5064442;28;20436;-53
2023/07/31 00:37:23;;;;;;;3.55;2.25;;;;;;;27.50;57.34;100658.09;5065924;28;20049;-56
2023/07/31 00:39:50;;;;;;;2.88;1.75;;;;;;;27.50;57.19;100660.78;5062158;28;20041;-56
2023/07/31 00:42:18;;;;;;;3.40;2.05;;;;;;;27.50;56.97;100655.34;5062511;28;20052;-57
2023/07/31 00:44:45;;;;;;;2.53;1.60;;;;;;;27.52;57.13;100668.78;5064421;28;20049;-56
2023/07/31 00:47:12;;;;;;;2.78;1.80;;;;;;;27.52;57.32;100664.19;5074172;28;20052;-53
2023/07/31 00:49:40;;;;;;;3.63;1.92;;;;;;;27.52;57.37;100668.78;5057566;28;20053;-51
2023/07/31 00:52:10;;;;;;;2.88;1.83;;;;;;;27.54;57.52;100664.81;5058944;28;20045;-53
2023/07/31 00:54:37;;;;;;;3.83;1.88;;;;;;;27.53;57.49;100662.31;5062226;28;20052;-53
2023/07/31 00:57:08;;;;;;;3.17;2.13;;;;;;;27.53;57.22;100659.59;5065113;28;20052;-56
2023/07/31 00:59:35;;;;;;;3.30;1.90;;;;;;;27.54;57.19;100669.41;5061922;28;20045;-56
2023/07/31 01:02:03;;;;;;;3.78;1.67;;;;;;;27.54;57.57;100670.25;5061224;28;20049;-56
2023/07/31 01:04:31;;;;;;;2.90;1.70;;;;;;;27.54;57.41;100681.13;5060862;28;20490;-56
2023/07/31 01:07:25;;;;;;;2.70;1.88;;;;;;;27.54;57.49;100678.41;5057710;28;20051;-52
2023/07/31 01:09:56;;;;;;;2.58;1.92;;;;;;;27.57;57.26;100682.66;5047405;28;20072;-53
2023/07/31 01:12:27;;;;;;;2.70;1.70;;;;;;;27.55;57.37;100684.72;5064139;28;20049;-51
2023/07/31 01:15:11;;;;;;;2.80;1.85;;;;;;;27.56;57.16;100684.53;5062888;28;20119;-53
2023/07/31 01:17:39;;;;;;;2.75;1.77;;;;;;;27.56;57.23;100684.53;5057509;28;20052;-56
2023/07/31 01:20:29;;;;;;;3.55;1.80;;;;;;;27.57;57.19;100680.75;5057642;28;20405;-56
2023/07/31 01:23:21;;;;;;;2.63;1.67;;;;;;;27.58;56.99;100678.88;5059243;28;20049;-56
2023/07/31 01:26:17;;;;;;;2.58;1.75;;;;;;;27.57;57.27;100679.94;5068023;28;20045;-56
2023/07/31 01:28:54;;;;;;;2.60;1.60;;;;;;;27.57;57.28;100680.75;5069177;28;20041;-56
2023/07/31 01:31:24;;;;;;;3.05;1.67;;;;;;;27.58;57.46;100678.88;5065823;28;20052;-56
2023/07/31 01:33:54;;;;;;;3.20;1.65;;;;;;;27.58;57.15;100677.00;5051495;28;20420;-56
2023/07/31 01:36:23;;;;;;;3.40;1.80;;;;;;;27.58;57.28;100682.44;5061521;28;20064;-56
2023/07/31 01:38:50;;;;;;;2.63;1.60;;;;;;;27.58;57.41;100690.59;5068046;28;20056;-52
2023/07/31 01:41:18;;;;;;;2.95;1.65;;;;;;;27.59;57.45;100683.31;5065705;28;20044;-52
2023/07/31 01:43:46;;;;;;;3.22;1.50;;;;;;;27.59;57.50;100684.16;5062435;28;20049;-53
2023/07/31 01:46:14;;;;;;;4.25;2.03;;;;;;;27.59;57.41;100686.03;5056599;28;20052;-53
2023/07/31 01:48:41;;;;;;;2.60;1.73;;;;;;;27.60;57.43;100691.28;5060971;28;20048;-53
2023/07/31 01:51:08;;;;;;;3.50;1.77;;;;;;;27.59;57.09;100689.59;5066032;28;20045;-53
2023/07/31 01:53:36;;;;;;;4.13;1.90;;;;;;;27.59;57.23;100686.88;5069337;28;20045;-53
2023/07/31 01:56:03;;;;;;;2.53;1.40;;;;;;;27.60;57.31;100685.84;5067208;28;20420;-54
2023/07/31 01:58:32;;;;;;;3.47;1.88;;;;;;;27.59;57.40;100683.31;5062070;28;20389;-52
2023/07/31 02:00:59;;;;;;;3.40;2.08;;;;;;;27.61;57.49;100689.41;5066076;28;20045;-52
2023/07/31 02:03:27;;;;;;;3.30;2.00;;;;;;;27.61;57.24;100697.56;5068299;28;20055;-54
2023/07/31 02:05:55;;;;;;;2.72;1.98;;;;;;;27.61;57.40;100683.94;5060377;28;20041;-50
2023/07/31 02:08:24;;;;;;;3.75;1.77;;;;;;;27.61;57.34;100687.50;5069320;28;20067;-53
2023/07/31 02:10:52;;;;;;;2.65;1.92;;;;;;;27.63;57.23;100689.19;5069653;28;20531;-52
2023/07/31 02:13:19;;;;;;;2.85;1.88;;;;;;;27.64;57.61;100701.78;5061675;28;20064;-51
2023/07/31 02:15:47;;;;;;;2.05;1.42;;;;;;;27.63;57.17;100694.63;5067418;28;20060;-53
2023/07/31 02:18:15;;;;;;;2.58;1.55;;;;;;;27.61;57.25;100690.22;5060741;28;20045;-56
2023/07/31 02:20:43;;;;;;;2.80;1.65;;;;;;;27.64;57.14;100690.91;5064929;28;20045;-56
2023/07/31 02:23:10;;;;;;;2.70;1.42;;;;;;;27.63;57.21;100681.91;5055898;28;20053;-56
2023/07/31 02:25:37;;;;;;;3.42;1.60;;;;;;;27.64;57.47;100680.03;5060017;28;20049;-56
2023/07/31 02:28:05;;;;;;;2.85;1.55;;;;;;;27.64;57.58;100685.47;5069251;28;20040;-56
2023/07/31 02:30:32;;;;;;;3.38;1.95;;;;;;;27.63;57.15;100684.63;5069690;28;20057;-57
2023/07/31 02:33:00;;;;;;;3.20;1.80;;;;;;;27.64;57.22;100685.47;5062858;28;20048;-57
2023/07/31 02:35:27;;;;;;;2.85;1.67;;;;;;;27.65;57.67;100684.41;5067278;28;20493;-57
2023/07/31 02:37:54;;;;;;;2.75;1.63;;;;;;;27.64;57.58;100685.47;5064401;28;20041;-52
2023/07/31 02:40:22;;;;;;;3.40;1.85;;;;;;;27.65;57.40;100692.56;5056334;28;20052;-50
2023/07/31 02:42:49;;;;;;;3.15;1.90;;;;;;;27.66;57.56;100691.53;5041258;28;20057;-53
2023/07/31 02:45:17;;;;;;;3.63;1.67;;;;;;;27.65;57.52;100687.13;5070265;28;20499;-61
2023/07/31 02:47:44;;;;;;;3.17;2.03;;;;;;;27.65;57.18;100687.13;5047301;28;20068;-57
2023/07/31 02:50:11;;;;;;;2.97;1.80;;;;;;;27.65;57.37;100692.56;5061113;28;20056;-57
2023/07/31 02:52:39;;;;;;;3.38;1.83;;;;;;;27.65;57.48;100689.84;5060025;28;20072;-57
2023/07/31 02:55:07;;;;;;;2.78;1.83;;;;;;;27.64;57.85;100689.03;5069496;28;20041;-57
2023/07/31 02:57:34;;;;;;;3.17;1.83;;;;;;;27.63;57.85;100686.47;5059407;28;20056;-57
2023/07/31 03:00:05;;;;;;;3.38;1.83;;;;;;;27.63;57.94;100694.63;5057632;28;20385;-57
2023/07/31 03:02:33;;;;;;;2.63;1.80;;;;;;;27.61;58.00;100683.94;5061620;28;20059;-57
2023/07/31 03:05:00;;;;;;;2.67;1.92;;;;;;;27.61;58.01;100695.66;5042046;28;20397;-57
2023/07/31 03:07:30;;;;;;;3.47;2.15;;;;;;;27.60;58.20;100691.28;5064990;28;20053;-58
2023/07/31 03:09:57;;;;;;;4.32;2.03;;;;;;;27.60;58.29;100687.72;5054308;28;20420;-57
2023/07/31 03:12:24;;;;;;;3.53;1.88;;;;;;;27.60;58.37;100687.72;5056401;28;20099;-57
2023/07/31 03:14:52;;;;;;;2.42;1.55;;;;;;;27.60;58.61;100682.28;5060884;28;20526;-58
2023/07/31 03:17:19;;;;;;;3.42;2.15;;;;;;;27.60;58.64;100685.84;5058844;28;20064;-58
2023/07/31 03:19:47;;;;;;;2.70;1.73;;;;;;;27.59;58.50;100683.31;5059050;28;20044;-57
2023/07/31 03:22:14;;;;;;;3.70;2.08;;;;;;;27.58;58.39;100685.16;5053837;28;20057;-57
2023/07/31 03:24:41;;;;;;;4.18;2.10;;;;;;;27.58;58.54;100684.31;5057315;28;20049;-57
2023/07/31 03:27:09;;;;;;;3.30;2.13;;;;;;;27.58;58.55;100681.59;5058754;28;20049;-58
2023/07/31 03:29:36;;;;;;;3.03;1.70;;;;;;;27.58;58.77;100687.03;5058253;28;20112;-57
2023/07/31 03:32:04;;;;;;;3.08;2.17;;;;;;;27.58;58.38;100687.03;5056193;28;20060;-57
2023/07/31 03:34:32;;;;;;;3.33;1.98;;;;;;;27.57;58.91;100691.66;5055099;28;20052;-57
2023/07/31 03:36:59;;;;;;;5.35;2.08;;;;;;;27.58;58.54;100693.31;5053772;28;20049;-61
2023/07/31 03:39:27;;;;;;;3.40;2.28;;;;;;;27.57;58.45;100696.25;5058104;28;20056;-61
2023/07/31 03:41:54;;;;;;;4.55;2.38;;;;;;;27.56;58.34;100700.84;5061047;28;20053;-61
2023/07/31 03:44:22;;;;;;;4.78;2.53;;;;;;;27.57;58.87;100701.69;5060667;28;20071;-61
2023/07/31 03:46:49;;;;;;;5.00;2.10;;;;;;;27.56;58.59;100713.59;5054707;28;20052;-60
2023/07/31 03:49:19;;;;;;;3.45;2.00;;;;;;;27.56;58.85;100719.88;5057841;28;20048;-61
2023/07/31 03:51:46;;;;;;;3.58;1.73;;;;;;;27.55;58.97;100715.47;5061315;28;20055;-61
2023/07/31 03:54:13;;;;;;;3.55;2.13;;;;;;;27.54;58.60;100721.94;5058407;28;20044;-61
2023/07/31 03:56:41;;;;;;;3.80;2.63;;;;;;;27.56;58.58;100719.03;5067217;28;20037;-58
2023/07/31 03:59:09;;;;;;;3.80;2.50;;;;;;;27.56;58.47;100719.03;5064858;28;20411;-57
2023/07/31 04:01:36;;;;;;;3.17;2.15;;;;;;;27.56;58.71;100721.75;5065437;28;20060;-58
2023/07/31 04:04:05;;;;;;;4.38;2.53;;;;;;;27.55;58.75;100714.66;5058441;28;20049;-58
2023/07/31 04:06:33;;;;;;;3.50;2.20;;;;;;;27.54;58.73;100719.22;5066955;28;20489;-60
2023/07/31 04:09:02;;;;;;;3.45;2.25;;;;;;;27.54;58.86;100713.78;5064522;28;20044;-61
2023/07/31 04:11:30;;;;;;;4.05;2.00;;;;;;;27.56;58.87;100716.31;5060114;28;20052;-61
2023/07/31 04:13:57;;;;;;;3.05;2.17;;;;;;;27.54;58.40;100715.66;5066464;28;20052;-61
2023/07/31 04:16:24;;;;;;;4.60;2.15;;;;;;;27.55;58.72;100722.78;5064150;28;20056;-61
2023/07/31 04:18:52;;;;;;;3.35;2.20;;;;;;;27.55;58.60;100717.34;5064559;28;20065;-57
2023/07/31 04:21:19;;;;;;;3.00;2.10;;;;;;;27.56;58.95;100713.59;5060359;28;20040;-57
2023/07/31 04:23:47;;;;;;;3.90;2.20;;;;;;;27.56;58.86;100725.31;5064023;28;20056;-57
2023/07/31 04:26:14;;;;;;;4.18;2.17;;;;;;;27.56;58.91;100721.75;5055089;28;20052;-57
2023/07/31 04:28:42;;;;;;;3.60;2.38;;;;;;;27.54;58.64;100719.22;5064709;28;20040;-61
2023/07/31 04:31:09;;;;;;;3.45;2.33;;;;;;;27.56;58.69;100724.47;5061154;28;20119;-61
2023/07/31 04:33:36;;;;;;;3.35;2.10;;;;;;;27.56;58.81;100725.31;5058859;28;20044;-62
2023/07/31 04:36:05;;;;;;;2.92;2.15;;;;;;;27.56;59.08;100717.16;5057724;28;20049;-61
2023/07/31 04:38:32;;;;;;;3.65;2.40;;;;;;;27.56;59.05;100719.88;5060904;28;20041;-57
2023/07/31 04:41:00;;;;;;;3.95;2.60;;;;;;;27.56;59.07;100721.75;5064059;28;20045;-57
2023/07/31 04:43:27;;;;;;;4.70;2.33;;;;;;;27.55;58.93;100718.19;5062780;28;20048;-57
2023/07/31 04:45:54;;;;;;;3.30;2.00;;;;;;;27.54;59.06;100713.78;5066995;28;20488;-57
2023/07/31 04:48:22;;;;;;;4.55;2.80;;;;;;;27.56;59.06;100728.03;5065323;28;20052;-57
2023/07/31 04:50:49;;;;;;;3.58;2.25;;;;;;;27.54;59.50;100721.94;5063829;28;20044;-57
2023/07/31 04:53:16;;;;;;;3.58;2.00;;;;;;;27.57;59.32;100721.56;5062509;28;20056;-57
2023/07/31 04:55:44;;;;;;;3.63;2.08;;;;;;;27.58;59.06;100730.56;5060592;28;20040;-57
2023/07/31 04:58:11;;;;;;;4.70;2.30;;;;;;;27.58;58.93;100725.97;5060759;28;20053;-61
2023/07/31 05:00:39;;;;;;;2.85;2.22;;;;;;;27.58;59.16;100719.69;5063684;28;20048;-61
2023/07/31 05:03:07;;;;;;;2.35;1.77;;;;;;;27.59;59.28;100727.66;5062031;28;20052;-61
2023/07/31 05:05:34;;;;;;;3.30;2.33;;;;;;;27.59;59.14;100718.66;5060528;28;20041;-61
2023/07/31 05:08:03;;;;;;;3.30;2.22;;;;;;;27.59;59.42;100724.09;5060896;28;20045;-58
2023/07/31 05:10:31;;;;;;;3.45;2.13;;;;;;;27.60;59.54;100731.22;5063420;28;20055;-58
2023/07/31 05:12:58;;;;;;;4.28;2.13;;;;;;;27.59;59.52;100727.66;5061498;28;20055;-57
2023/07/31 05:15:26;;;;;;;3.13;1.90;;;;;;;27.59;59.37;100726.81;5060557;28;20064;-58
2023/07/31 05:17:53;;;;;;;3.13;2.08;;;;;;;27.59;59.20;100735.81;5059091;28;20401;-58
2023/07/31 05:20:21;;;;;;;3.03;1.98;;;;;;;27.59;59.30;100737.72;5063321;28;20048;-57
2023/07/31 05:22:48;;;;;;;3.95;2.50;;;;;;;27.59;59.01;100741.25;5061969;28;20507;-57
2023/07/31 05:25:16;;;;;;;5.45;2.22;;;;;;;27.60;59.19;100740.22;5055551;28;20049;-57
2023/07/31 05:27:43;;;;;;;4.15;2.85;;;;;;;27.59;59.22;100743.97;5057591;28;20060;-57
2023/07/31 05:30:10;;;;;;;5.97;2.65;;;;;;;27.58;59.47;100742.28;5062808;28;20052;-57
2023/07/31 05:32:38;;;;;;;3.30;2.50;;;;;;;27.60;59.34;100752.97;5059522;28;20400;-57
2023/07/31 05:35:05;;;;;;;2.97;2.30;;;;;;;27.60;59.45;100750.25;5057808;28;20049;-57
2023/07/31 05:37:33;;;;;;;2.95;2.00;;;;;;;27.60;59.63;100745.66;5061544;28;20056;-58
2023/07/31 05:40:00;;;;;;;3.78;2.05;;;;;;;27.60;59.49;100745.66;5068292;28;20047;-57
2023/07/31 05:42:27;;;;;;;3.17;2.22;;;;;;;27.61;59.58;100750.06;5056541;28;20511;-57
2023/07/31 05:44:55;;;;;;;2.88;2.05;;;;;;;27.61;59.63;100752.78;5058003;28;20049;-57
2023/07/31 05:47:22;;;;;;;3.25;2.17;;;;;;;27.61;59.37;100752.78;5059309;28;20048;-61
2023/07/31 05:49:52;;;;;;;3.03;2.05;;;;;;;27.61;59.65;100755.50;5058962;28;20063;-61
2023/07/31 05:52:19;;;;;;;4.72;2.72;;;;;;;27.63;60.01;100754.47;5058899;28;20051;-61
2023/07/31 05:54:47;;;;;;;4.57;2.67;;;;;;;27.63;59.87;100758.06;5061199;28;20067;-61
2023/07/31 05:57:14;;;;;;;4.22;2.65;;;;;;;27.63;60.21;100752.63;5064237;28;20055;-58
2023/07/31 05:59:41;;;;;;;4.30;2.72;;;;;;;27.64;59.88;100758.91;5070166;28;20043;-57
2023/07/31 06:02:09;;;;;;;3.42;2.58;;;;;;;27.62;60.21;100761.78;5059732;28;20049;-57
2023/07/31 06:04:36;;;;;;;3.75;2.67;;;;;;;27.63;59.84;100760.78;5068289;28;20055;-57
2023/07/31 06:07:04;;;;;;;4.57;3.08;;;;;;;27.63;60.04;100759.91;5057075;28;20049;-61
2023/07/31 06:09:31;;;;;;;4.53;2.88;;;;;;;27.60;60.01;100759.25;5058730;28;20071;-61
2023/07/31 06:11:59;;;;;;;4.10;2.47;;;;;;;27.60;59.75;100750.25;5058842;28;20049;-61
2023/07/31 06:14:26;;;;;;;4.32;3.15;;;;;;;27.60;59.76;100756.53;5057286;28;20052;-61
2023/07/31 06:16:53;;;;;;;4.68;3.13;;;;;;;27.61;60.18;100760.09;5065077;28;20537;-58
2023/07/31 06:19:21;;;;;;;3.35;2.75;;;;;;;27.62;60.12;100761.78;5059366;28;20493;-57
2023/07/31 06:21:48;;;;;;;4.03;3.08;;;;;;;27.62;60.14;100775.38;5058407;28;20052;-58
2023/07/31 06:24:18;;;;;;;5.38;3.35;;;;;;;27.61;60.25;100773.69;5061848;28;20047;-57
2023/07/31 06:26:46;;;;;;;3.80;2.95;;;;;;;27.61;59.90;100774.53;5059626;28;20048;-61
2023/07/31 06:29:13;;;;;;;4.22;2.75;;;;;;;27.59;59.86;100776.63;5058171;28;20044;-61
2023/07/31 06:31:41;;;;;;;4.28;3.53;;;;;;;27.59;60.09;100779.34;5070791;28;20048;-61
2023/07/31 06:34:08;;;;;;;3.90;2.97;;;;;;;27.59;59.92;100773.91;5061514;28;20048;-61
2023/07/31 06:36:36;;;;;;;4.10;2.70;;;;;;;27.60;59.81;100775.56;5062931;28;20049;-59
2023/07/31 06:39:04;;;;;;;4.30;3.03;;;;;;;27.60;59.76;100781.03;5069946;28;20412;-57
2023/07/31 06:41:31;;;;;;;3.92;2.50;;;;;;;27.63;59.23;100781.66;5058623;28;20420;-57
2023/07/31 06:43:59;;;;;;;2.70;2.15;;;;;;;27.64;59.16;100780.66;5062109;28;20523;-57
2023/07/31 06:46:27;;;;;;;3.58;2.30;;;;;;;27.66;59.26;100781.28;5065934;28;20053;-58
2023/07/31 06:48:55;;;;;;;4.07;3.00;;;;;;;27.66;59.26;100789.44;5058484;28;20404;-61
2023/07/31 06:51:22;;;;;;;7.65;4.80;;;;;;;27.64;59.88;100789.66;5069668;28;20485;-61
2023/07/31 06:53:49;;;;;;;7.78;4.20;;;;;;;27.63;59.55;100787.97;5061250;28;20059;-61
2023/07/31 06:56:17;;;;;;;4.32;3.78;;;;;;;27.63;59.68;100792.53;5062152;28;20045;-61
2023/07/31 06:58:44;;;;;;;5.45;3.30;;;;;;;27.64;59.54;100791.53;5069016;28;20055;-61
2023/07/31 07:01:11;;;;;;;4.32;3.13;;;;;;;27.65;59.84;100785.88;5057771;28;20052;-61
2023/07/31 07:03:39;;;;;;;5.28;3.75;;;;;;;27.65;59.69;100790.50;5066227;28;20049;-60
2023/07/31 07:06:07;;;;;;;5.80;4.00;;;;;;;27.66;59.89;100800.31;5061294;28;20041;-62
2023/07/31 07:08:34;;;;;;;5.60;3.92;;;;;;;27.66;59.97;100792.16;5059185;28;20063;-62
2023/07/31 07:11:01;;;;;;;5.18;4.28;;;;;;;27.64;59.99;100796.97;5067865;28;20051;-62
2023/07/31 07:13:29;;;;;;;6.03;4.45;;;;;;;27.63;59.41;100790.69;5061422;28;20052;-62
2023/07/31 07:15:56;;;;;;;5.90;4.20;;;;;;;27.60;59.21;100788.34;5065048;28;20045;-62
2023/07/31 07:18:24;;;;;;;6.45;5.15;;;;;;;27.55;59.05;100796.22;5059254;28;20071;-62
2023/07/31 07:20:53;;;;;;;7.35;4.53;;;;;;;27.47;58.95;100789.00;5068736;28;20048;-61
2023/07/31 07:23:21;;;;;;;6.50;4.60;;;;;;;27.44;59.15;100789.34;5060876;28;20044;-61
2023/07/31 07:25:48;;;;;;;7.80;4.63;;;;;;;27.40;58.95;100785.31;5068583;28;20407;-61
2023/07/31 07:28:15;;;;;;;7.28;5.15;;;;;;;27.36;58.61;100776.69;5056555;28;20041;-61
2023/07/31 07:30:43;;;;;;;4.82;4.18;;;;;;;27.29;58.97;100780.34;5057694;28;20044;-61
2023/07/31 07:33:12;;;;;;;6.35;4.18;;;;;;;27.28;59.37;100778.66;5065418;28;20045;-61
2023/07/31 07:35:39;;;;;;;5.93;4.50;;;;;;;27.30;59.41;100788.28;5056637;28;20061;-59
2023/07/31 07:38:07;;;;;;;4.82;3.83;;;;;;;27.35;59.31;100790.47;5060042;28;20044;-60
2023/07/31 07:40:39;;;;;;;4.75;3.47;;;;;;;27.38;58.74;100795.53;5058694;28;20052;-61
2023/07/31 07:43:06;;;;;;;5.20;3.60;;;;;;;27.40;58.60;100789.91;5056744;28;20045;-61
2023/07/31 07:45:34;;;;;;;5.78;4.15;;;;;;;27.42;58.41;100790.56;5061479;28;20052;-61
2023/07/31 07:48:01;;;;;;;5.10;3.85;;;;;;;27.44;58.33;100794.78;5060025;28;20075;-61
2023/07/31 07:50:28;;;;;;;5.55;3.78;;;;;;;27.48;57.94;100795.28;5069016;28;20500;-61
2023/07/31 07:52:56;;;;;;;4.95;3.40;;;;;;;27.50;58.08;100804.06;5052516;28;20049;-63
2023/07/31 07:55:23;;;;;;;4.88;3.47;;;;;;;27.51;57.81;100808.50;5053579;28;20061;-60
2023/07/31 07:57:51;;;;;;;5.60;3.67;;;;;;;27.51;57.72;100809.34;5056272;28;20052;-56
2023/07/31 08:00:18;;;;;;;5.13;3.50;;;;;;;27.51;57.66;100806.63;5056849;28;20049;-54
2023/07/31 08:02:45;;;;;;;5.25;3.22;;;;;;;27.50;57.89;100804.91;5055336;28;20045;-56
2023/07/31 08:05:13;;;;;;;4.88;2.75;;;;;;;27.50;57.57;100804.91;5056373;28;20040;-57
2023/07/31 08:07:41;;;;;;;4.00;2.95;;;;;;;27.48;57.99;100807.00;5070664;28;20063;-59
2023/07/31 08:10:08;;;;;;;4.65;3.53;;;;;;;27.48;57.52;100803.44;5056534;28;20044;-59
2023/07/31 08:12:35;;;;;;;5.32;3.30;;;;;;;27.48;57.79;100801.56;5060243;28;20049;-59
2023/07/31 08:15:03;;;;;;;4.15;2.90;;;;;;;27.49;57.33;100797.78;5060660;28;20045;-60
2023/07/31 08:17:31;;;;;;;5.70;3.30;;;;;;;27.50;57.51;100801.34;5059992;28;20052;-55
2023/07/31 08:19:58;;;;;;;3.90;2.60;;;;;;;27.53;57.78;100798.25;5060647;28;20373;-55
2023/07/31 08:22:26;;;;;;;4.40;3.33;;;;;;;27.56;57.32;100795.19;5060582;28;20064;-54
2023/07/31 08:24:53;;;;;;;5.78;3.30;;;;;;;27.57;57.43;100797.69;5068616;28;20380;-58
2023/07/31 08:27:20;;;;;;;4.72;3.13;;;;;;;27.61;57.08;100790.84;5060972;28;20472;-55
2023/07/31 08:29:48;;;;;;;4.18;3.00;;;;;;;27.63;57.41;100789.81;5060043;28;20044;-54
2023/07/31 08:32:15;;;;;;;3.88;3.20;;;;;;;27.64;57.34;100786.94;5060093;28;20381;-54
2023/07/31 08:34:43;;;;;;;3.75;2.85;;;;;;;27.66;57.48;100793.00;5062758;28;20053;-54
2023/07/31 08:37:11;;;;;;;4.30;2.80;;;;;;;27.68;57.43;100795.56;5063260;28;20055;-53
2023/07/31 08:39:41;;;;;;;4.22;2.83;;;;;;;27.68;57.33;100782.81;5059982;28;20052;-54
2023/07/31 08:42:09;;;;;;;5.07;3.00;;;;;;;27.69;57.38;100772.75;5058306;28;20758;-53
2023/07/31 08:44:38;;;;;;;3.05;2.35;;;;;;;27.70;57.44;100777.16;5059621;28;20045;-52
2023/07/31 08:47:06;;;;;;;3.13;2.55;;;;;;;27.69;57.06;100784.47;5074866;28;20052;-57
2023/07/31 08:49:34;;;;;;;4.43;2.97;;;;;;;27.71;57.31;100793.31;5059594;28;20048;-58
2023/07/31 08:52:02;;;;;;;3.45;2.45;;;;;;;27.73;57.19;100793.13;5059455;28;20052;-58
2023/07/31 08:54:30;;;;;;;4.28;2.63;;;;;;;27.73;57.11;100793.97;5059803;28;20049;-57
2023/07/31 08:56:59;;;;;;;4.32;2.72;;;;;;;27.73;57.04;100782.22;5071918;28;20045;-57
2023/07/31 08:59:32;;;;;;;3.22;2.50;;;;;;;27.74;57.03;100781.22;5059096;28;20053;-57
2023/07/31 09:02:05;;;;;;;4.07;3.13;;;;;;;27.74;56.92;100779.34;5059675;28;20060;-57
2023/07/31 09:04:33;;;;;;;3.92;2.95;;;;;;;27.75;57.12;100781.06;5060979;28;20044;-57
2023/07/31 09:07:04;;;;;;;3.47;2.70;;;;;;;27.75;56.81;100786.50;5060330;28;20049;-53
2023/07/31 09:09:32;;;;;;;4.15;2.50;;;;;;;27.76;57.10;100781.91;5059567;28;20049;-53
2023/07/31 09:11:59;;;;;;;3.45;2.42;;;;;;;27.77;56.78;100789.00;5058651;28;20048;-53
2023/07/31 09:14:27;;;;;;;3.95;2.45;;;;;;;27.76;57.14;100777.28;5061470;28;20052;-52
2023/07/31 09:16:56;;;;;;;5.43;3.17;;;;;;;27.78;57.14;100787.97;5060204;28;20412;-53
2023/07/31 09:19:34;;;;;;;4.13;2.60;;;;;;;27.78;56.80;100786.09;5058808;28;20501;-51
2023/07/31 09:22:01;;;;;;;3.70;2.50;;;;;;;27.79;56.77;100778.78;5058306;28;20041;-53
2023/07/31 09:24:31;;;;;;;3.13;2.50;;;;;;;27.80;56.97;100777.75;5061440;28;20049;-52
2023/07/31 09:26:59;;;;;;;3.97;2.22;;;;;;;27.81;57.12;100772.13;5070025;28;20048;-57
2023/07/31 09:29:29;;;;;;;3.30;2.10;;;;;;;27.82;56.66;100770.25;5057652;28;20413;-57
2023/07/31 09:31:57;;;;;;;4.80;2.40;;;;;;;27.83;57.06;100778.22;5057689;28;20052;-57
2023/07/31 09:34:39;;;;;;;5.10;2.30;;;;;;;27.84;57.04;100770.91;5071044;28;20063;-58
2023/07/31 09:37:06;;;;;;;2.88;2.10;;;;;;;27.85;56.97;100764.44;5062199;28;20071;-57
2023/07/31 09:39:46;;;;;;;2.95;2.33;;;;;;;27.87;57.09;100762.34;5063075;28;20075;-57
2023/07/31 09:42:14;;;;;;;2.70;2.22;;;;;;;27.87;56.76;100766.94;5073471;28;20048;-58
2023/07/31 09:44:41;;;;;;;2.95;2.08;;;;;;;27.87;56.95;100758.78;5060027;28;20045;-58
2023/07/31 09:47:30;;;;;;;2.55;1.83;;;;;;;27.88;57.57;100757.78;5066179;28;20519;-57
2023/07/31 09:49:58;;;;;;;3.35;2.55;;;;;;;27.87;57.73;100756.91;5058584;28;20497;-57
2023/07/31 09:52:27;;;;;;;2.90;1.92;;;;;;;27.87;57.59;100756.91;5057920;28;20045;-57
2023/07/31 09:54:54;;;;;;;3.42;2.10;;;;;;;27.87;57.86;100764.22;5061782;28;20059;-57
2023/07/31 09:57:22;;;;;;;2.60;1.90;;;;;;;27.89;57.63;100757.56;5062142;28;20048;-57
2023/07/31 09:59:53;;;;;;;3.60;2.03;;;;;;;27.90;57.33;100755.69;5071020;28;20412;-57
2023/07/31 10:02:22;;;;;;;2.75;1.98;;;;;;;27.90;57.65;100756.53;5057671;28;20056;-57
2023/07/31 10:04:51;;;;;;;2.97;1.88;;;;;;;27.89;57.43;100759.44;5065766;28;20048;-58
2023/07/31 10:07:20;;;;;;;2.92;1.60;;;;;;;27.92;57.44;100753.63;5067245;28;20044;-53
2023/07/31 10:09:49;;;;;;;2.70;1.90;;;;;;;27.92;57.54;100749.03;5070172;28;20416;-53
2023/07/31 10:12:19;;;;;;;2.85;1.85;;;;;;;27.92;57.19;100749.03;5059960;28;20040;-50
2023/07/31 10:14:47;;;;;;;3.28;1.98;;;;;;;27.93;57.43;100744.44;5071769;28;20522;-54
2023/07/31 10:17:15;;;;;;;2.60;2.00;;;;;;;27.93;57.02;100753.44;5060247;28;20400;-54
2023/07/31 10:19:43;;;;;;;3.17;2.03;;;;;;;27.95;57.49;100754.06;5069895;28;20480;-60
2023/07/31 10:22:12;;;;;;;2.75;2.17;;;;;;;27.98;57.60;100745.53;5060690;28;20048;-58
2023/07/31 10:24:42;;;;;;;3.10;2.10;;;;;;;28.00;57.90;100740.75;5064513;28;20057;-58
2023/07/31 10:27:10;;;;;;;3.85;2.50;;;;;;;28.02;57.93;100746.84;5059171;28;20049;-58
2023/07/31 10:29:39;;;;;;;3.53;2.17;;;;;;;28.05;57.92;100742.91;5068882;28;20056;-59
2023/07/31 10:32:10;;;;;;;7.38;2.70;;;;;;;28.08;57.30;100737.91;5059693;28;20067;-58
2023/07/31 10:34:40;;;;;;;3.38;2.30;;;;;;;28.10;57.62;100737.72;5073230;28;20048;-58
2023/07/31 10:37:35;;;;;;;3.95;2.35;;;;;;;28.14;57.37;100735.47;5073717;28;20060;-58
2023/07/31 10:40:16;;;;;;;3.13;2.38;;;;;;;28.17;57.24;100729.63;5061202;28;20044;-59
2023/07/31 10:43:02;;;;;;;3.35;2.60;;;;;;;28.18;56.83;100731.31;5073267;28;20056;-58
2023/07/31 10:45:36;;;;;;;3.63;2.75;;;;;;;28.19;56.96;100733.00;5072699;28;20044;-58
2023/07/31 10:48:04;;;;;;;3.63;2.30;;;;;;;28.18;57.20;100734.03;5073614;28;20040;-58
2023/07/31 10:50:37;;;;;;;3.42;2.45;;;;;;;28.18;57.39;100734.03;5073046;28;20404;-58
2023/07/31 10:53:07;;;;;;;4.72;2.50;;;;;;;28.18;57.39;100728.59;5069779;28;20047;-58
2023/07/31 10:55:42;;;;;;;3.33;2.40;;;;;;;28.17;57.30;100725.03;5073492;28;20060;-58
2023/07/31 10:58:10;;;;;;;4.45;2.60;;;;;;;28.16;57.37;100722.50;5073682;28;20507;-52
2023/07/31 11:00:43;;;;;;;3.67;2.25;;;;;;;28.16;57.46;100726.06;5072816;28;20413;-53
2023/07/31 11:03:14;;;;;;;;;;;;;;;28.15;57.73;100723.53;5073195;28;20045;-51
2023/07/31 11:05:50;;;;;;;4.35;2.60;;;;;;;28.17;57.00;100724.19;5072570;28;19920;-53
2023/07/31 11:08:25;;;;;;;2.90;2.40;;;;;;;28.18;56.67;100725.88;5072655;28;20053;-59
2023/07/31 11:11:02;;;;;;;3.88;2.75;;;;;;;28.20;56.65;100719.22;5073102;28;20044;-59
2023/07/31 11:13:32;;;;;;;3.70;2.60;;;;;;;28.22;55.95;100721.72;5072891;28;20053;-59
2023/07/31 11:16:00;;;;;;;4.82;2.85;;;;;;;28.23;55.99;100713.34;5072808;28;20056;-59
2023/07/31 11:18:27;;;;;;;3.85;2.42;;;;;;;28.24;55.56;100715.06;5072176;28;20052;-58
2023/07/31 11:20:55;;;;;;;3.95;2.65;;;;;;;28.24;55.96;100714.22;5072349;28;20048;-59
2023/07/31 11:23:23;;;;;;;2.70;2.30;;;;;;;28.23;56.17;100717.97;5072844;28;20452;-59
2023/07/31 11:25:51;;;;;;;3.63;2.78;;;;;;;28.21;56.46;100710.00;5072903;28;20083;-59
2023/07/31 11:28:19;;;;;;;2.97;2.67;;;;;;;28.22;56.09;100700.78;5072160;28;20056;-52
2023/07/31 11:30:47;;;;;;;3.10;2.13;;;;;;;28.22;56.06;100695.34;5057492;28;20040;-52